Time,TemperatureF,DewpointF,PressureIn,WindDirection,WindDirectionDegrees,WindSpeedMPH,WindSpeedGustMPH,Humidity,HourlyPrecipIn,Conditions,Clouds,dailyrainin,SoftwareType,DateUTC
2013-07-06 00:04:00,75.6,0.0,27.08,East,92,0.0,0.0,0,0.00,,---,0.00,VWS V13.01,2013-07-06 07:04:00,
2013-07-06 00:09:00,75.2,0.0,27.08,East,92,0.0,0.0,0,0.00,,---,0.00,VWS V13.01,2013-07-06 07:09:00,
2013-07-06 00:14:00,75.0,0.0,27.08,East,92,0.0,0.0,0,0.00,,---,0.00,VWS V13.01,2013-07-06 07:14:00,
2013-07-06 00:20:00,74.8,0.0,27.08,East,92,0.0,0.0,0,0.00,,---,0.00,VWS V13.01,2013-07-06 07:20:00,
2013-07-06 00:25:00,74.7,0.0,27.08,East,92,0.0,0.0,0,0.00,,---,0.00,VWS V13.01,2013-07-06 07:25:00,
2013-07-06 00:30:00,74.7,0.0,27.08,East,92,0.0,0.0,0,0.00,,---,0.00,VWS V13.01,2013-07-06 07:30:00,
2013-07-06 00:35:00,74.7,0.0,27.08,East,92,0.0,0.0,0,0.00,,---,0.00,VWS V13.01,2013-07-06 07:35:00,
2013-07-06 00:40:00,74.7,0.0,27.08,South,187,2.7,3.1,0,0.00,,---,0.00,VWS V13.01,2013-07-06 07:40:00,
2013-07-06 00:46:00,74.5,0.0,27.08,South,178,4.9,5.8,0,0.00,,---,0.00,VWS V13.01,2013-07-06 07:46:00,
2013-07-06 00:51:00,74.5,0.0,27.08,SSE,165,4.0,6.3,0,0.00,,---,0.00,VWS V13.01,2013-07-06 07:51:00,
2013-07-06 00:56:00,74.7,0.0,27.08,SSE,165,3.1,5.8,0,0.00,,---,0.00,VWS V13.01,2013-07-06 07:56:00,
2013-07-06 01:01:00,74.7,0.0,27.08,SE,132,4.0,5.4,0,0.00,,---,0.00,VWS V13.01,2013-07-06 08:01:00,
2013-07-06 01:07:00,74.8,0.0,27.08,SE,144,3.1,4.5,0,0.00,,---,0.00,VWS V13.01,2013-07-06 08:07:00,
2013-07-06 01:12:00,75.0,0.0,27.08,SSE,166,4.9,6.3,0,0.00,,---,0.00,VWS V13.01,2013-07-06 08:12:00,
2013-07-06 01:17:00,75.0,0.0,27.08,SSE,158,5.8,6.3,0,0.00,,---,0.00,VWS V13.01,2013-07-06 08:17:00,
2013-07-06 01:22:00,75.2,0.0,27.08,SE,136,2.2,4.9,0,0.00,,---,0.00,VWS V13.01,2013-07-06 08:22:00,
2013-07-06 01:27:00,75.0,0.0,27.08,ESE,115,0.0,3.6,0,0.00,,---,0.00,VWS V13.01,2013-07-06 08:27:00,
2013-07-06 01:32:00,75.0,0.0,27.08,East,88,4.9,4.9,0,0.00,,---,0.00,VWS V13.01,2013-07-06 08:32:00,
2013-07-06 01:38:00,75.0,0.0,27.08,ESE,105,0.0,0.0,0,0.00,,---,0.00,VWS V13.01,2013-07-06 08:38:00,
2013-07-06 01:43:00,75.0,0.0,27.08,ESE,106,2.7,3.1,0,0.00,,---,0.00,VWS V13.01,2013-07-06 08:43:00,
2013-07-06 01:48:00,75.0,0.0,27.08,East,95,3.6,5.8,0,0.00,,---,0.00,VWS V13.01,2013-07-06 08:48:00,
2013-07-06 01:54:00,75.2,0.0,27.08,ESE,104,3.1,3.1,0,0.00,,---,0.00,VWS V13.01,2013-07-06 08:54:00,
2013-07-06 01:59:00,75.2,0.0,27.08,East,100,0.0,0.0,0,0.00,,---,0.00,VWS V13.01,2013-07-06 08:59:00,
2013-07-06 02:04:00,75.2,0.0,27.08,ESE,109,3.1,5.8,0,0.00,,---,0.00,VWS V13.01,2013-07-06 09:04:00,
2013-07-06 02:09:00,75.4,0.0,27.08,East,100,0.0,3.6,0,0.00,,---,0.00,VWS V13.01,2013-07-06 09:09:00,
2013-07-06 02:15:00,75.2,0.0,27.08,East,99,0.0,0.0,0,0.00,,---,0.00,VWS V13.01,2013-07-06 09:15:00,
2013-07-06 02:20:00,75.0,0.0,27.08,East,99,3.1,3.1,0,0.00,,---,0.00,VWS V13.01,2013-07-06 09:20:00,
2013-07-06 02:25:00,75.0,0.0,27.08,East,98,0.0,0.0,0,0.00,,---,0.00,VWS V13.01,2013-07-06 09:25:00,
2013-07-06 02:30:00,74.7,0.0,27.08,East,79,0.0,4.0,0,0.00,,---,0.00,VWS V13.01,2013-07-06 09:30:00,
2013-07-06 02:35:00,74.5,0.0,27.08,ESE,116,3.1,5.4,0,0.00,,---,0.00,VWS V13.01,2013-07-06 09:35:00,
2013-07-06 02:40:00,74.5,0.0,27.08,ESE,102,2.2,4.0,0,0.00,,---,0.00,VWS V13.01,2013-07-06 09:40:00,
2013-07-06 02:46:00,74.3,0.0,27.08,ESE,102,0.0,3.6,0,0.00,,---,0.00,VWS V13.01,2013-07-06 09:46:00,
2013-07-06 02:51:00,74.3,0.0,27.08,East,99,0.0,2.2,0,0.00,,---,0.00,VWS V13.01,2013-07-06 09:51:00,
2013-07-06 02:56:00,74.3,0.0,27.08,East,85,3.6,4.9,0,0.00,,---,0.00,VWS V13.01,2013-07-06 09:56:00,
2013-07-06 03:02:00,74.3,0.0,27.08,East,90,0.0,3.1,0,0.00,,---,0.00,VWS V13.01,2013-07-06 10:02:00,
2013-07-06 03:07:00,74.3,0.0,27.05,East,90,0.0,4.0,0,0.00,,---,0.00,VWS V13.01,2013-07-06 10:07:00,
2013-07-06 03:12:00,74.1,0.0,27.05,East,91,0.0,0.0,0,0.00,,---,0.00,VWS V13.01,2013-07-06 10:12:00,
2013-07-06 03:17:00,74.1,0.0,27.05,East,91,0.0,0.0,0,0.00,,---,0.00,VWS V13.01,2013-07-06 10:17:00,
2013-07-06 03:22:00,73.9,0.0,27.05,East,91,0.0,0.0,0,0.00,,---,0.00,VWS V13.01,2013-07-06 10:22:00,
2013-07-06 03:27:00,73.8,0.0,27.05,East,91,0.0,0.0,0,0.00,,---,0.00,VWS V13.01,2013-07-06 10:27:00,
2013-07-06 03:33:00,73.6,0.0,27.05,East,91,0.0,0.0,0,0.00,,---,0.00,VWS V13.01,2013-07-06 10:33:00,
2013-07-06 03:38:00,73.6,0.0,27.05,East,91,0.0,0.0,0,0.00,,---,0.00,VWS V13.01,2013-07-06 10:38:00,
2013-07-06 03:43:00,73.4,0.0,27.05,East,91,0.0,0.0,0,0.00,,---,0.00,VWS V13.01,2013-07-06 10:43:00,
2013-07-06 03:48:00,73.4,0.0,27.05,East,91,0.0,0.0,0,0.00,,---,0.00,VWS V13.01,2013-07-06 10:48:00,
2013-07-06 03:54:00,73.2,0.0,27.05,East,91,0.0,0.0,0,0.00,,---,0.00,VWS V13.01,2013-07-06 10:54:00,
2013-07-06 03:59:00,73.0,0.0,27.05,East,91,0.0,0.0,0,0.00,,---,0.00,VWS V13.01,2013-07-06 10:59:00,
2013-07-06 04:04:00,72.9,0.0,27.05,East,91,0.0,0.0,0,0.00,,---,0.00,VWS V13.01,2013-07-06 11:04:00,
2013-07-06 04:10:00,72.7,0.0,27.05,East,91,0.0,0.0,0,0.00,,---,0.00,VWS V13.01,2013-07-06 11:10:00,
2013-07-06 04:15:00,72.7,0.0,27.05,East,91,0.0,0.0,0,0.00,,---,0.00,VWS V13.01,2013-07-06 11:15:00,
2013-07-06 04:20:00,72.7,0.0,27.05,East,91,0.0,0.0,0,0.00,,---,0.00,VWS V13.01,2013-07-06 11:20:00,
2013-07-06 04:25:00,72.7,0.0,27.05,East,91,0.0,0.0,0,0.00,,---,0.00,VWS V13.01,2013-07-06 11:25:00,
2013-07-06 04:31:00,72.5,0.0,27.05,East,91,0.0,0.0,0,0.00,,---,0.00,VWS V13.01,2013-07-06 11:31:00,
2013-07-06 04:36:00,72.3,0.0,27.05,East,91,0.0,0.0,0,0.00,,---,0.00,VWS V13.01,2013-07-06 11:36:00,
2013-07-06 04:41:00,72.3,0.0,27.05,East,91,0.0,0.0,0,0.00,,---,0.00,VWS V13.01,2013-07-06 11:41:00,
2013-07-06 04:46:00,72.1,0.0,27.05,East,91,0.0,0.0,0,0.00,,---,0.00,VWS V13.01,2013-07-06 11:46:00,
2013-07-06 04:51:00,72.1,0.0,27.05,East,91,0.0,0.0,0,0.00,,---,0.00,VWS V13.01,2013-07-06 11:51:00,
2013-07-06 04:56:00,72.1,0.0,27.05,East,91,0.0,0.0,0,0.00,,---,0.00,VWS V13.01,2013-07-06 11:56:00,
2013-07-06 05:02:00,72.1,0.0,27.05,East,91,0.0,0.0,0,0.00,,---,0.00,VWS V13.01,2013-07-06 12:02:00,
2013-07-06 05:07:00,72.1,0.0,27.05,East,91,0.0,0.0,0,0.00,,---,0.00,VWS V13.01,2013-07-06 12:07:00,
2013-07-06 05:12:00,72.1,0.0,27.05,East,91,0.0,0.0,0,0.00,,---,0.00,VWS V13.01,2013-07-06 12:12:00,
2013-07-06 05:17:00,72.1,0.0,27.05,East,91,0.0,0.0,0,0.00,,---,0.00,VWS V13.01,2013-07-06 12:17:00,
2013-07-06 05:22:00,72.1,0.0,27.05,East,91,0.0,0.0,0,0.00,,---,0.00,VWS V13.01,2013-07-06 12:22:00,
2013-07-06 05:27:00,72.1,0.0,27.05,SE,133,3.6,4.0,0,0.00,,---,0.00,VWS V13.01,2013-07-06 12:27:00,
2013-07-06 05:33:00,72.3,0.0,27.05,SE,133,0.0,0.0,0,0.00,,---,0.00,VWS V13.01,2013-07-06 12:33:00,
2013-07-06 05:38:00,72.3,0.0,27.08,SE,129,0.0,0.0,0,0.00,,---,0.00,VWS V13.01,2013-07-06 12:38:00,
2013-07-06 05:43:00,72.5,0.0,27.08,SE,129,0.0,0.0,0,0.00,,---,0.00,VWS V13.01,2013-07-06 12:43:00,
2013-07-06 05:49:00,72.7,0.0,27.08,SE,129,0.0,0.0,0,0.00,,---,0.00,VWS V13.01,2013-07-06 12:49:00,
2013-07-06 05:54:00,72.9,0.0,27.08,South,189,0.0,0.0,0,0.00,,---,0.00,VWS V13.01,2013-07-06 12:54:00,
2013-07-06 05:59:00,73.0,0.0,27.08,SSE,164,0.0,0.0,0,0.00,,---,0.00,VWS V13.01,2013-07-06 12:59:00,
2013-07-06 06:04:00,73.2,0.0,27.08,SSE,164,0.0,0.0,0,0.00,,---,0.00,VWS V13.01,2013-07-06 13:04:00,
2013-07-06 06:09:00,73.6,0.0,27.08,SSE,164,0.0,0.0,0,0.00,,---,0.00,VWS V13.01,2013-07-06 13:09:00,
2013-07-06 06:14:00,73.9,0.0,27.08,SSE,164,0.0,0.0,0,0.00,,---,0.00,VWS V13.01,2013-07-06 13:14:00,
2013-07-06 06:20:00,74.3,0.0,27.08,SSE,155,0.0,0.0,0,0.00,,---,0.00,VWS V13.01,2013-07-06 13:20:00,
2013-07-06 06:25:00,74.8,0.0,27.08,SSE,151,0.0,0.0,0,0.00,,---,0.00,VWS V13.01,2013-07-06 13:25:00,
2013-07-06 06:30:00,75.4,0.0,27.08,SE,130,0.0,0.0,0,0.00,,---,0.00,VWS V13.01,2013-07-06 13:30:00,
2013-07-06 06:35:00,75.9,0.0,27.08,ENE,69,0.0,0.0,0,0.00,,---,0.00,VWS V13.01,2013-07-06 13:35:00,
2013-07-06 06:41:00,76.5,0.0,27.08,East,93,0.0,2.7,0,0.00,,---,0.00,VWS V13.01,2013-07-06 13:41:00,
2013-07-06 06:46:00,77.4,0.0,27.08,SE,137,2.2,4.0,0,0.00,,---,0.00,VWS V13.01,2013-07-06 13:46:00,
2013-07-06 06:51:00,83.3,0.0,27.08,ESE,112,0.0,0.0,0,0.00,,---,0.00,VWS V13.01,2013-07-06 13:51:00,
2013-07-06 06:56:00,88.2,0.0,27.08,ESE,102,2.2,3.1,0,0.00,,---,0.00,VWS V13.01,2013-07-06 13:56:00,
2013-07-06 07:01:00,89.8,0.0,27.08,East,96,3.1,5.8,0,0.00,,---,0.00,VWS V13.01,2013-07-06 14:01:00,
2013-07-06 07:06:00,90.1,0.0,27.08,ESE,123,5.4,5.4,0,0.00,,---,0.00,VWS V13.01,2013-07-06 14:06:00,
2013-07-06 07:12:00,90.7,0.0,27.08,ESE,120,3.1,5.4,0,0.00,,---,0.00,VWS V13.01,2013-07-06 14:12:00,
2013-07-06 07:17:00,93.4,0.0,27.08,East,101,3.6,6.7,0,0.00,,---,0.00,VWS V13.01,2013-07-06 14:17:00,
2013-07-06 07:22:00,92.7,0.0,27.08,East,95,4.0,6.3,0,0.00,,---,0.00,VWS V13.01,2013-07-06 14:22:00,
2013-07-06 07:27:00,92.7,0.0,27.08,ESE,120,2.7,5.8,0,0.00,,---,0.00,VWS V13.01,2013-07-06 14:27:00,
2013-07-06 07:32:00,91.9,0.0,27.08,East,101,0.0,6.3,0,0.00,,---,0.00,VWS V13.01,2013-07-06 14:32:00,
2013-07-06 07:38:00,92.1,0.0,27.11,ESE,118,3.6,4.0,0,0.00,,---,0.00,VWS V13.01,2013-07-06 14:38:00,
2013-07-06 07:43:00,93.7,0.0,27.11,East,101,3.6,5.4,0,0.00,,---,0.00,VWS V13.01,2013-07-06 14:43:00,
2013-07-06 07:48:00,97.7,0.0,27.11,SE,124,3.1,6.3,0,0.00,,---,0.00,VWS V13.01,2013-07-06 14:48:00,
2013-07-06 07:54:00,98.2,0.0,27.11,East,89,5.4,6.3,0,0.00,,---,0.00,VWS V13.01,2013-07-06 14:54:00,
2013-07-06 07:59:00,99.3,0.0,27.11,East,90,4.9,4.9,0,0.00,,---,0.00,VWS V13.01,2013-07-06 14:59:00,
2013-07-06 08:04:00,100.4,0.0,27.11,East,85,4.0,5.4,0,0.00,,---,0.00,VWS V13.01,2013-07-06 15:04:00,
2013-07-06 08:09:00,100.9,0.0,27.11,East,91,0.0,5.8,0,0.00,,---,0.00,VWS V13.01,2013-07-06 15:09:00,
2013-07-06 08:15:00,105.4,0.0,27.11,ESE,109,0.0,4.0,0,0.00,,---,0.00,VWS V13.01,2013-07-06 15:15:00,
2013-07-06 08:20:00,107.1,0.0,27.11,East,80,3.1,5.4,0,0.00,,---,0.00,VWS V13.01,2013-07-06 15:20:00,
2013-07-06 08:25:00,99.5,0.0,27.11,East,93,0.0,4.9,0,0.00,,---,0.00,VWS V13.01,2013-07-06 15:25:00,
2013-07-06 08:31:00,96.1,0.0,27.11,East,99,2.7,4.0,0,0.00,,---,0.00,VWS V13.01,2013-07-06 15:31:00,
2013-07-06 08:36:00,94.3,0.0,27.11,ESE,107,2.2,4.0,0,0.00,,---,0.00,VWS V13.01,2013-07-06 15:36:00,
2013-07-06 08:41:00,93.9,0.0,27.11,SE,141,0.0,4.0,0,0.00,,---,0.00,VWS V13.01,2013-07-06 15:41:00,
2013-07-06 08:46:00,93.9,0.0,27.11,ESE,113,3.6,3.6,0,0.00,,---,0.00,VWS V13.01,2013-07-06 15:46:00,
2013-07-06 08:51:00,93.6,0.0,27.11,South,179,0.0,0.0,0,0.00,,---,0.00,VWS V13.01,2013-07-06 15:51:00,
2013-07-06 08:56:00,93.7,0.0,27.11,ESE,120,4.0,4.0,0,0.00,,---,0.00,VWS V13.01,2013-07-06 15:56:00,
2013-07-06 09:02:00,93.6,0.0,27.11,ESE,114,3.1,5.4,0,0.00,,---,0.00,VWS V13.01,2013-07-06 16:02:00,
2013-07-06 09:07:00,93.7,0.0,27.08,SSE,155,0.0,3.6,0,0.00,,---,0.00,VWS V13.01,2013-07-06 16:07:00,
2013-07-06 09:13:00,93.6,0.0,27.08,South,188,0.0,2.7,0,0.00,,---,0.00,VWS V13.01,2013-07-06 16:13:00,
2013-07-06 09:18:00,93.9,0.0,27.08,SE,143,0.0,4.9,0,0.00,,---,0.00,VWS V13.01,2013-07-06 16:18:00,
2013-07-06 09:23:00,94.1,0.0,27.11,South,191,2.2,5.8,0,0.00,,---,0.00,VWS V13.01,2013-07-06 16:23:00,
2013-07-06 09:29:00,93.9,0.0,27.11,SSW,213,6.3,6.3,0,0.00,,---,0.00,VWS V13.01,2013-07-06 16:29:00,
2013-07-06 09:36:00,93.2,0.0,27.11,SW,218,0.0,0.0,0,0.00,,---,0.00,VWS V13.01,2013-07-06 16:36:00,
2013-07-06 09:41:00,93.9,0.0,27.11,SW,219,0.0,6.3,0,0.00,,---,0.00,VWS V13.01,2013-07-06 16:41:00,
2013-07-06 09:46:00,93.7,0.0,27.11,SSW,212,0.0,4.0,0,0.00,,---,0.00,VWS V13.01,2013-07-06 16:46:00,
2013-07-06 09:51:00,93.9,0.0,27.08,SW,216,2.7,5.4,0,0.00,,---,0.00,VWS V13.01,2013-07-06 16:51:00,
2013-07-06 09:56:00,93.9,0.0,27.08,SW,230,0.0,6.3,0,0.00,,---,0.00,VWS V13.01,2013-07-06 16:56:00,
2013-07-06 10:02:00,94.8,0.0,27.08,WSW,248,4.0,5.4,0,0.00,,---,0.00,VWS V13.01,2013-07-06 17:02:00,
2013-07-06 10:07:00,94.6,0.0,27.08,ENE,77,0.0,4.0,0,0.00,,---,0.00,VWS V13.01,2013-07-06 17:07:00,
2013-07-06 10:13:00,95.0,0.0,27.08,West,261,4.0,4.0,0,0.00,,---,0.00,VWS V13.01,2013-07-06 17:13:00,
2013-07-06 10:18:00,94.6,0.0,27.08,South,186,5.4,5.4,0,0.00,,---,0.00,VWS V13.01,2013-07-06 17:18:00,
2013-07-06 10:24:00,95.2,0.0,27.08,West,268,0.0,3.1,0,0.00,,---,0.00,VWS V13.01,2013-07-06 17:24:00,
2013-07-06 10:29:00,95.5,0.0,27.08,SSW,192,0.0,5.4,0,0.00,,---,0.00,VWS V13.01,2013-07-06 17:29:00,
2013-07-06 10:34:00,96.3,0.0,27.08,East,79,0.0,3.1,0,0.00,,---,0.00,VWS V13.01,2013-07-06 17:34:00,
2013-07-06 10:39:00,97.3,0.0,27.08,SW,218,3.6,5.8,0,0.00,,---,0.00,VWS V13.01,2013-07-06 17:39:00,
2013-07-06 10:45:00,97.5,0.0,27.08,WSW,246,0.0,0.0,0,0.00,,---,0.00,VWS V13.01,2013-07-06 17:45:00,
2013-07-06 10:50:00,97.0,0.0,27.08,WSW,246,5.4,8.1,0,0.00,,---,0.00,VWS V13.01,2013-07-06 17:50:00,
2013-07-06 10:56:00,96.8,0.0,27.08,West,279,3.1,5.4,0,0.00,,---,0.00,VWS V13.01,2013-07-06 17:56:00,
2013-07-06 11:01:00,96.8,0.0,27.08,WNW,282,5.4,5.8,0,0.00,,---,0.00,VWS V13.01,2013-07-06 18:01:00,
2013-07-06 11:07:00,97.0,0.0,27.08,West,281,6.3,6.3,0,0.00,,---,0.00,VWS V13.01,2013-07-06 18:07:00,
2013-07-06 11:12:00,97.7,0.0,27.08,South,174,3.6,6.3,0,0.00,,---,0.00,VWS V13.01,2013-07-06 18:12:00,
2013-07-06 11:17:00,98.8,0.0,27.08,SE,128,0.0,3.1,0,0.00,,---,0.00,VWS V13.01,2013-07-06 18:17:00,
2013-07-06 11:23:00,98.8,0.0,27.08,South,173,2.7,6.3,0,0.00,,---,0.00,VWS V13.01,2013-07-06 18:23:00,
2013-07-06 11:29:00,99.1,0.0,27.08,SSE,168,0.0,7.6,0,0.00,,---,0.00,VWS V13.01,2013-07-06 18:29:00,
2013-07-06 11:35:00,99.0,0.0,27.08,SSW,211,0.0,5.8,0,0.00,,---,0.00,VWS V13.01,2013-07-06 18:35:00,
2013-07-06 11:40:00,99.1,0.0,27.08,WSW,241,5.8,6.3,0,0.00,,---,0.00,VWS V13.01,2013-07-06 18:40:00,
2013-07-06 11:45:00,99.0,0.0,27.08,WNW,285,0.0,6.7,0,0.00,,---,0.00,VWS V13.01,2013-07-06 18:45:00,
2013-07-06 11:50:00,100.0,0.0,27.08,WNW,288,0.0,0.0,0,0.00,,---,0.00,VWS V13.01,2013-07-06 18:50:00,
2013-07-06 11:55:00,100.4,0.0,27.08,WNW,300,0.0,0.0,0,0.00,,---,0.00,VWS V13.01,2013-07-06 18:55:00,
2013-07-06 12:01:00,100.2,0.0,27.08,SSW,212,8.1,9.2,0,0.00,,---,0.00,VWS V13.01,2013-07-06 19:01:00,
2013-07-06 12:06:00,100.2,0.0,27.05,South,181,2.7,6.3,0,0.00,,---,0.00,VWS V13.01,2013-07-06 19:06:00,
2013-07-06 12:12:00,100.9,0.0,27.05,WNW,297,5.4,8.3,0,0.00,,---,0.00,VWS V13.01,2013-07-06 19:12:00,
2013-07-06 12:17:00,100.6,0.0,27.05,WSW,247,5.8,7.2,0,0.00,,---,0.00,VWS V13.01,2013-07-06 19:17:00,
2013-07-06 12:23:00,100.4,0.0,27.05,South,171,0.0,5.4,0,0.00,,---,0.00,VWS V13.01,2013-07-06 19:23:00,
2013-07-06 12:28:00,100.8,0.0,27.05,NNW,328,5.8,8.1,0,0.00,,---,0.00,VWS V13.01,2013-07-06 19:28:00,
2013-07-06 12:34:00,101.5,0.0,27.05,WNW,291,3.1,5.8,0,0.00,,---,0.00,VWS V13.01,2013-07-06 19:34:00,
2013-07-06 12:39:00,101.1,0.0,27.05,WNW,285,5.4,5.8,0,0.00,,---,0.00,VWS V13.01,2013-07-06 19:39:00,
2013-07-06 12:45:00,101.8,0.0,27.05,South,173,3.6,5.4,0,0.00,,---,0.00,VWS V13.01,2013-07-06 19:45:00,
2013-07-06 12:50:00,102.2,0.0,27.05,WSW,244,3.6,7.6,0,0.00,,---,0.00,VWS V13.01,2013-07-06 19:50:00,
2013-07-06 12:55:00,102.9,0.0,27.05,SE,128,3.6,5.8,0,0.00,,---,0.00,VWS V13.01,2013-07-06 19:55:00,
2013-07-06 13:01:00,103.5,0.0,27.05,SSW,199,0.0,8.1,0,0.00,,---,0.00,VWS V13.01,2013-07-06 20:01:00,
2013-07-06 13:07:00,103.5,0.0,27.02,SSW,200,5.4,8.1,0,0.00,,---,0.00,VWS V13.01,2013-07-06 20:07:00,
2013-07-06 13:14:00,104.2,0.0,27.02,South,190,0.0,3.6,0,0.00,,---,0.00,VWS V13.01,2013-07-06 20:14:00,
2013-07-06 13:21:00,104.9,0.0,27.02,NW,306,5.8,8.3,0,0.00,,---,0.00,VWS V13.01,2013-07-06 20:21:00,
2013-07-06 13:27:00,104.2,0.0,27.02,SSW,211,3.1,7.6,0,0.00,,---,0.00,VWS V13.01,2013-07-06 20:27:00,
2013-07-06 13:32:00,104.2,0.0,27.02,West,265,4.0,6.3,0,0.00,,---,0.00,VWS V13.01,2013-07-06 20:32:00,
2013-07-06 13:37:00,104.0,0.0,27.02,SW,221,7.6,8.1,0,0.00,,---,0.00,VWS V13.01,2013-07-06 20:37:00,
2013-07-06 13:42:00,103.6,0.0,27.02,WSW,247,6.3,9.2,0,0.00,,---,0.00,VWS V13.01,2013-07-06 20:42:00,
2013-07-06 13:49:00,104.0,0.0,27.02,WNW,294,8.1,8.1,0,0.00,,---,0.00,VWS V13.01,2013-07-06 20:49:00,
2013-07-06 13:54:00,104.4,0.0,27.02,South,183,2.2,8.7,0,0.00,,---,0.00,VWS V13.01,2013-07-06 20:54:00,
2013-07-06 13:59:00,104.9,0.0,27.02,South,174,4.0,6.3,0,0.00,,---,0.00,VWS V13.01,2013-07-06 20:59:00,
2013-07-06 14:05:00,105.3,0.0,27.02,SE,125,0.0,5.4,0,0.00,,---,0.00,VWS V13.01,2013-07-06 21:05:00,
2013-07-06 14:11:00,106.2,0.0,27.02,WSW,239,6.3,9.6,0,0.00,,---,0.00,VWS V13.01,2013-07-06 21:11:00,
2013-07-06 14:16:00,105.8,0.0,27.02,WSW,238,5.8,7.2,0,0.00,,---,0.00,VWS V13.01,2013-07-06 21:16:00,
2013-07-06 14:21:00,106.0,0.0,26.99,SW,233,0.0,7.6,0,0.00,,---,0.00,VWS V13.01,2013-07-06 21:21:00,
2013-07-06 14:28:00,106.3,0.0,26.99,ESE,114,8.1,8.3,0,0.00,,---,0.00,VWS V13.01,2013-07-06 21:28:00,
2013-07-06 14:33:00,106.7,0.0,26.99,West,267,5.4,5.8,0,0.00,,---,0.00,VWS V13.01,2013-07-06 21:33:00,
2013-07-06 14:39:00,107.6,0.0,26.99,WSW,245,8.1,8.1,0,0.00,,---,0.00,VWS V13.01,2013-07-06 21:39:00,
2013-07-06 14:45:00,107.4,0.0,26.99,SSW,193,5.8,6.3,0,0.00,,---,0.00,VWS V13.01,2013-07-06 21:45:00,
2013-07-06 14:50:00,107.8,0.0,26.99,SSW,212,0.0,6.3,0,0.00,,---,0.00,VWS V13.01,2013-07-06 21:50:00,
2013-07-06 14:56:00,107.6,0.0,26.99,SE,145,2.2,4.9,0,0.00,,---,0.00,VWS V13.01,2013-07-06 21:56:00,
2013-07-06 15:01:00,109.2,0.0,26.99,SE,129,0.0,7.6,0,0.00,,---,0.00,VWS V13.01,2013-07-06 22:01:00,
2013-07-06 15:07:00,109.9,0.0,26.99,East,88,3.1,5.4,0,0.00,,---,0.00,VWS V13.01,2013-07-06 22:07:00,
2013-07-06 15:12:00,109.4,0.0,26.99,WSW,237,3.6,6.7,0,0.00,,---,0.00,VWS V13.01,2013-07-06 22:12:00,
2013-07-06 15:17:00,109.2,0.0,26.99,SSW,199,5.4,8.1,0,0.00,,---,0.00,VWS V13.01,2013-07-06 22:17:00,
2013-07-06 15:27:00,108.9,0.0,26.99,WSW,251,4.9,10.5,0,0.00,,---,0.00,VWS V13.01,2013-07-06 22:27:00,
2013-07-06 15:33:00,109.4,0.0,26.99,SW,234,0.0,5.8,0,0.00,,---,0.00,VWS V13.01,2013-07-06 22:33:00,
2013-07-06 15:40:00,111.2,0.0,26.96,ENE,66,0.0,3.6,0,0.00,,---,0.00,VWS V13.01,2013-07-06 22:40:00,
2013-07-06 15:45:00,110.8,0.0,26.96,NE,46,0.0,0.0,0,0.00,,---,0.00,VWS V13.01,2013-07-06 22:45:00,
2013-07-06 15:50:00,111.0,0.0,26.96,SW,224,5.8,7.6,0,0.00,,---,0.00,VWS V13.01,2013-07-06 22:50:00,
2013-07-06 15:56:00,110.1,0.0,26.96,West,275,5.4,8.1,0,0.00,,---,0.00,VWS V13.01,2013-07-06 22:56:00,
2013-07-06 16:01:00,110.3,0.0,26.96,SSW,199,5.8,6.3,0,0.00,,---,0.00,VWS V13.01,2013-07-06 23:01:00,
2013-07-06 16:07:00,110.5,0.0,26.96,West,276,5.4,7.6,0,0.00,,---,0.00,VWS V13.01,2013-07-06 23:07:00,
2013-07-06 16:12:00,109.9,0.0,26.96,SW,223,7.2,8.7,0,0.00,,---,0.00,VWS V13.01,2013-07-06 23:12:00,
2013-07-06 16:17:00,109.6,0.0,26.96,SW,229,6.7,7.6,0,0.00,,---,0.00,VWS V13.01,2013-07-06 23:17:00,
2013-07-06 16:22:00,109.6,0.0,26.96,SSW,208,6.3,6.3,0,0.00,,---,0.00,VWS V13.01,2013-07-06 23:22:00,
2013-07-06 16:28:00,109.4,0.0,26.96,WSW,239,0.0,5.8,0,0.00,,---,0.00,VWS V13.01,2013-07-06 23:28:00,
2013-07-06 16:34:00,107.6,0.0,26.96,SSW,201,5.4,8.7,0,0.00,,---,0.00,VWS V13.01,2013-07-06 23:34:00,
2013-07-06 16:40:00,106.7,0.0,26.96,South,176,4.0,5.4,0,0.00,,---,0.00,VWS V13.01,2013-07-06 23:40:00,
2013-07-06 16:45:00,106.2,0.0,26.96,SSW,204,6.3,6.3,0,0.00,,---,0.00,VWS V13.01,2013-07-06 23:45:00,
2013-07-06 16:50:00,104.7,0.0,26.96,South,188,2.7,7.6,0,0.00,,---,0.00,VWS V13.01,2013-07-06 23:50:00,
2013-07-06 16:55:00,103.8,0.0,26.96,SSW,209,4.0,7.2,0,0.00,,---,0.00,VWS V13.01,2013-07-06 23:55:00,
2013-07-06 17:01:00,102.9,0.0,26.96,SSW,205,0.0,3.6,0,0.00,,---,0.00,VWS V13.01,2013-07-07 00:01:00,
2013-07-06 17:06:00,102.4,0.0,26.93,WSW,255,4.0,6.3,0,0.00,,---,0.00,VWS V13.01,2013-07-07 00:06:00,
2013-07-06 17:12:00,101.8,0.0,26.93,SW,236,5.8,6.3,0,0.00,,---,0.00,VWS V13.01,2013-07-07 00:12:00,
2013-07-06 17:18:00,101.1,0.0,26.93,SW,223,0.0,4.0,0,0.00,,---,0.00,VWS V13.01,2013-07-07 00:18:00,
2013-07-06 17:23:00,100.8,0.0,26.96,SW,236,6.3,6.3,0,0.00,,---,0.00,VWS V13.01,2013-07-07 00:23:00,
2013-07-06 17:28:00,100.4,0.0,26.96,SW,224,3.6,6.3,0,0.00,,---,0.00,VWS V13.01,2013-07-07 00:28:00,
2013-07-06 17:33:00,100.2,0.0,26.96,WSW,247,3.6,6.3,0,0.00,,---,0.00,VWS V13.01,2013-07-07 00:33:00,
2013-07-06 17:39:00,100.0,0.0,26.96,SSW,192,5.8,7.2,0,0.00,,---,0.00,VWS V13.01,2013-07-07 00:39:00,
2013-07-06 17:44:00,99.9,0.0,26.96,SW,228,6.3,6.3,0,0.00,,---,0.00,VWS V13.01,2013-07-07 00:44:00,
2013-07-06 17:52:00,99.7,0.0,26.96,WSW,255,8.3,10.1,0,0.00,,---,0.00,VWS V13.01,2013-07-07 00:52:00,
2013-07-06 17:57:00,99.3,0.0,26.96,SW,221,4.9,9.6,0,0.00,,---,0.00,VWS V13.01,2013-07-07 00:57:00,
2013-07-06 18:02:00,99.1,0.0,26.96,SSW,206,3.1,8.1,0,0.00,,---,0.00,VWS V13.01,2013-07-07 01:02:00,
2013-07-06 18:07:00,99.1,0.0,26.96,WSW,257,3.1,8.3,0,0.00,,---,0.00,VWS V13.01,2013-07-07 01:07:00,
2013-07-06 18:13:00,99.0,0.0,26.96,WSW,247,3.1,6.3,0,0.00,,---,0.00,VWS V13.01,2013-07-07 01:13:00,
2013-07-06 18:18:00,98.8,0.0,26.96,SW,231,4.0,6.7,0,0.00,,---,0.00,VWS V13.01,2013-07-07 01:18:00,
2013-07-06 18:24:00,98.6,0.0,26.96,WSW,241,5.4,5.8,0,0.00,,---,0.00,VWS V13.01,2013-07-07 01:24:00,
2013-07-06 18:29:00,98.4,0.0,26.96,SW,220,4.5,7.6,0,0.00,,---,0.00,VWS V13.01,2013-07-07 01:29:00,
2013-07-06 18:35:00,98.1,0.0,26.96,SSW,201,0.0,8.7,0,0.00,,---,0.00,VWS V13.01,2013-07-07 01:35:00,
2013-07-06 18:42:00,97.5,0.0,26.96,WSW,243,4.9,5.4,0,0.00,,---,0.00,VWS V13.01,2013-07-07 01:42:00,
2013-07-06 18:49:00,97.2,0.0,26.96,South,175,4.0,7.2,0,0.00,,---,0.00,VWS V13.01,2013-07-07 01:49:00,
2013-07-06 18:54:00,97.0,0.0,26.96,SW,220,0.0,0.0,0,0.00,,---,0.00,VWS V13.01,2013-07-07 01:54:00,
2013-07-06 19:00:00,96.6,0.0,26.96,South,187,4.0,4.9,0,0.00,,---,0.00,VWS V13.01,2013-07-07 02:00:00,
2013-07-06 19:05:00,96.3,0.0,26.96,South,191,0.0,0.0,0,0.00,,---,0.00,VWS V13.01,2013-07-07 02:05:00,
2013-07-06 19:10:00,96.1,0.0,26.99,SSW,193,0.0,0.0,0,0.00,,---,0.00,VWS V13.01,2013-07-07 02:10:00,
2013-07-06 19:16:00,95.9,0.0,26.99,SSW,193,0.0,0.0,0,0.00,,---,0.00,VWS V13.01,2013-07-07 02:16:00,
2013-07-06 19:21:00,95.5,0.0,26.99,SSW,194,0.0,0.0,0,0.00,,---,0.00,VWS V13.01,2013-07-07 02:21:00,
2013-07-06 19:27:00,95.4,0.0,26.99,SSW,194,0.0,0.0,0,0.00,,---,0.00,VWS V13.01,2013-07-07 02:27:00,
2013-07-06 19:33:00,95.0,0.0,26.99,SSW,202,3.1,3.6,0,0.00,,---,0.00,VWS V13.01,2013-07-07 02:33:00,
2013-07-06 19:38:00,94.8,0.0,26.99,SSW,202,0.0,0.0,0,0.00,,---,0.00,VWS V13.01,2013-07-07 02:38:00,
2013-07-06 19:43:00,94.5,0.0,26.99,SSW,202,0.0,0.0,0,0.00,,---,0.00,VWS V13.01,2013-07-07 02:43:00,
2013-07-06 19:48:00,93.9,0.0,26.99,SSW,202,0.0,0.0,0,0.00,,---,0.00,VWS V13.01,2013-07-07 02:48:00,
2013-07-06 19:54:00,93.7,0.0,26.96,SSW,202,0.0,0.0,0,0.00,,---,0.00,VWS V13.01,2013-07-07 02:54:00,
2013-07-06 19:59:00,93.6,0.0,26.96,SSW,202,0.0,0.0,0,0.00,,---,0.00,VWS V13.01,2013-07-07 02:59:00,
2013-07-06 20:05:00,93.2,0.0,26.96,South,190,0.0,0.0,0,0.00,,---,0.00,VWS V13.01,2013-07-07 03:05:00,
2013-07-06 20:11:00,92.7,0.0,26.99,South,184,0.0,0.0,0,0.00,,---,0.00,VWS V13.01,2013-07-07 03:11:00,
2013-07-06 20:17:00,92.3,0.0,26.99,South,179,0.0,0.0,0,0.00,,---,0.00,VWS V13.01,2013-07-07 03:17:00,
2013-07-06 20:23:00,91.9,0.0,26.99,South,178,0.0,0.0,0,0.00,,---,0.00,VWS V13.01,2013-07-07 03:23:00,
2013-07-06 20:29:00,91.6,0.0,26.99,SE,127,0.0,0.0,0,0.00,,---,0.00,VWS V13.01,2013-07-07 03:29:00,
2013-07-06 20:35:00,91.4,0.0,26.99,SE,138,0.0,0.0,0,0.00,,---,0.00,VWS V13.01,2013-07-07 03:35:00,
2013-07-06 20:40:00,91.0,0.0,26.99,South,172,0.0,0.0,0,0.00,,---,0.00,VWS V13.01,2013-07-07 03:40:00,
2013-07-06 20:45:00,90.9,0.0,26.99,South,172,0.0,0.0,0,0.00,,---,0.00,VWS V13.01,2013-07-07 03:45:00,
2013-07-06 20:52:00,90.5,0.0,27.02,South,183,0.0,0.0,0,0.00,,---,0.00,VWS V13.01,2013-07-07 03:52:00,
2013-07-06 20:58:00,90.1,0.0,27.02,South,183,0.0,0.0,0,0.00,,---,0.00,VWS V13.01,2013-07-07 03:58:00,
2013-07-06 21:01:00,90.1,0.0,27.02,South,184,0.0,0.0,0,0.00,,---,0.00,VWS V13.01,2013-07-07 04:01:00,
2013-07-06 21:02:00,90.0,0.0,27.02,South,185,0.0,0.0,0,0.00,,---,0.00,VWS V13.01,2013-07-07 04:02:00,
2013-07-06 21:04:00,90.0,0.0,27.02,West,273,0.0,0.0,0,0.00,,---,0.00,VWS V13.01,2013-07-07 04:04:00,
2013-07-06 21:09:00,90.0,0.0,27.02,WNW,290,0.0,4.0,0,0.00,,---,0.00,VWS V13.01,2013-07-07 04:09:00,
2013-07-06 21:14:00,90.3,0.0,27.02,WNW,285,0.0,2.7,0,0.00,,---,0.00,VWS V13.01,2013-07-07 04:14:00,
2013-07-06 21:19:00,90.5,0.0,27.02,West,268,0.0,0.0,0,0.00,,---,0.00,VWS V13.01,2013-07-07 04:19:00,
2013-07-06 21:25:00,90.5,0.0,27.05,WNW,289,5.8,5.8,0,0.00,,---,0.00,VWS V13.01,2013-07-07 04:25:00,
2013-07-06 21:30:00,90.5,0.0,27.05,WNW,291,0.0,5.8,0,0.00,,---,0.00,VWS V13.01,2013-07-07 04:30:00,
2013-07-06 21:35:00,90.3,0.0,27.05,WNW,291,0.0,7.6,0,0.00,,---,0.00,VWS V13.01,2013-07-07 04:35:00,
2013-07-06 21:41:00,90.1,0.0,27.05,WNW,293,4.0,8.1,0,0.00,,---,0.00,VWS V13.01,2013-07-07 04:41:00,
2013-07-06 21:46:00,90.0,0.0,27.05,WNW,282,0.0,0.0,0,0.00,,---,0.00,VWS V13.01,2013-07-07 04:46:00,
2013-07-06 21:51:00,89.6,0.0,27.05,West,260,5.8,5.8,0,0.00,,---,0.00,VWS V13.01,2013-07-07 04:51:00,
2013-07-06 21:57:00,89.4,0.0,27.05,WNW,286,3.6,3.6,0,0.00,,---,0.00,VWS V13.01,2013-07-07 04:57:00,
2013-07-06 22:02:00,89.2,0.0,27.05,West,267,9.6,10.5,0,0.00,,---,0.00,VWS V13.01,2013-07-07 05:02:00,
2013-07-06 22:07:00,89.1,0.0,27.05,West,265,8.3,10.1,0,0.00,,---,0.00,VWS V13.01,2013-07-07 05:07:00,
2013-07-06 22:12:00,88.5,0.0,27.05,NW,317,8.3,11.0,0,0.00,,---,0.00,VWS V13.01,2013-07-07 05:12:00,
2013-07-06 22:17:00,88.2,0.0,27.05,NW,307,7.6,10.1,0,0.00,,---,0.00,VWS V13.01,2013-07-07 05:17:00,
2013-07-06 22:22:00,87.8,0.0,27.05,WSW,247,5.4,9.6,0,0.00,,---,0.00,VWS V13.01,2013-07-07 05:22:00,
2013-07-06 22:27:00,87.6,0.0,27.05,WSW,248,5.4,8.3,0,0.00,,---,0.00,VWS V13.01,2013-07-07 05:27:00,
2013-07-06 22:33:00,87.3,0.0,27.05,SW,223,0.0,8.7,0,0.00,,---,0.00,VWS V13.01,2013-07-07 05:33:00,
2013-07-06 22:38:00,87.1,0.0,27.05,West,272,8.7,8.7,0,0.00,,---,0.00,VWS V13.01,2013-07-07 05:38:00,
2013-07-06 22:43:00,86.5,0.0,27.05,SW,225,4.9,7.6,0,0.00,,---,0.00,VWS V13.01,2013-07-07 05:43:00,
2013-07-06 22:48:00,86.4,0.0,27.05,WNW,288,6.3,8.7,0,0.00,,---,0.00,VWS V13.01,2013-07-07 05:48:00,
2013-07-06 22:53:00,86.2,0.0,27.05,NW,314,4.9,5.4,0,0.00,,---,0.00,VWS V13.01,2013-07-07 05:53:00,
2013-07-06 22:58:00,86.0,0.0,27.05,West,266,3.6,4.0,0,0.00,,---,0.00,VWS V13.01,2013-07-07 05:58:00,
2013-07-06 23:04:00,85.8,0.0,27.05,WSW,249,6.3,6.3,0,0.00,,---,0.00,VWS V13.01,2013-07-07 06:04:00,
2013-07-06 23:09:00,85.5,0.0,27.05,WNW,298,0.0,5.8,0,0.00,,---,0.00,VWS V13.01,2013-07-07 06:09:00,
2013-07-06 23:14:00,85.3,0.0,27.05,WNW,298,0.0,0.0,0,0.00,,---,0.00,VWS V13.01,2013-07-07 06:14:00,
2013-07-06 23:20:00,85.1,0.0,27.05,WNW,295,0.0,0.0,0,0.00,,---,0.00,VWS V13.01,2013-07-07 06:20:00,
2013-07-06 23:25:00,84.7,0.0,27.05,WNW,295,0.0,0.0,0,0.00,,---,0.00,VWS V13.01,2013-07-07 06:25:00,
2013-07-06 23:30:00,84.6,0.0,27.05,South,174,0.0,0.0,0,0.00,,---,0.00,VWS V13.01,2013-07-07 06:30:00,
2013-07-06 23:35:00,84.2,0.0,27.05,South,170,0.0,0.0,0,0.00,,---,0.00,VWS V13.01,2013-07-07 06:35:00,
2013-07-06 23:41:00,83.8,0.0,27.05,South,171,0.0,0.0,0,0.00,,---,0.00,VWS V13.01,2013-07-07 06:41:00,
2013-07-06 23:46:00,83.7,0.0,27.05,SSE,168,0.0,3.1,0,0.00,,---,0.00,VWS V13.01,2013-07-07 06:46:00,
2013-07-06 23:51:00,83.3,0.0,27.05,South,169,3.1,4.9,0,0.00,,---,0.00,VWS V13.01,2013-07-07 06:51:00,
2013-07-06 23:56:00,83.1,0.0,27.05,SE,134,0.0,4.0,0,0.00,,---,0.00,VWS V13.01,2013-07-07 06:56:00,